createdAt,value
2023-05-08T00:01:24.559Z,75.50
2023-05-08T00:03:56.300Z,75.80
2023-05-08T00:06:28.891Z,76.20
2023-05-08T00:08:59.719Z,76.40
2023-05-08T00:11:34.859Z,76.60
2023-05-08T00:14:05.788Z,76.70
2023-05-08T00:16:37.065Z,77.50
2023-05-08T00:19:08.011Z,78.80
2023-05-08T00:21:38.742Z,78.00
2023-05-08T00:24:09.940Z,77.60
2023-05-08T00:26:40.676Z,77.60
2023-05-08T00:29:12.564Z,77.50
2023-05-08T00:31:43.475Z,77.70
2023-05-08T00:34:14.333Z,77.60
2023-05-08T00:36:45.082Z,77.90
2023-05-08T00:39:15.808Z,77.90
2023-05-08T00:41:46.594Z,78.00
2023-05-08T00:44:17.329Z,77.90
2023-05-08T00:46:48.642Z,78.00
2023-05-08T00:49:19.756Z,77.90
2023-05-08T00:51:52.337Z,77.70
2023-05-08T00:54:29.891Z,77.50
2023-05-08T00:57:00.839Z,77.40
2023-05-08T00:59:31.920Z,77.10
2023-05-08T01:02:03.886Z,76.80
2023-05-08T01:04:35.633Z,76.80
2023-05-08T01:07:06.715Z,76.70
2023-05-08T01:09:37.728Z,77.00
2023-05-08T01:12:17.256Z,77.30
2023-05-08T01:15:20.873Z,77.50
2023-05-08T01:18:05.784Z,78.10
2023-05-08T01:20:55.601Z,77.90
2023-05-08T01:23:57.544Z,77.40
2023-05-08T01:26:52.160Z,76.30
2023-05-08T01:29:55.531Z,76.00
2023-05-08T01:32:45.182Z,76.20
2023-05-08T01:35:33.114Z,77.00
2023-05-08T01:38:22.817Z,77.30
2023-05-08T01:41:14.545Z,76.30
2023-05-08T01:43:57.000Z,75.20
2023-05-08T01:46:37.904Z,74.80
2023-05-08T01:49:15.946Z,74.90
2023-05-08T01:52:04.215Z,75.30
2023-05-08T01:54:40.232Z,75.60
2023-05-08T01:57:13.134Z,75.60
2023-05-08T01:59:45.130Z,75.50
2023-05-08T02:02:17.369Z,75.40
2023-05-08T02:04:49.152Z,75.60
2023-05-08T02:07:21.412Z,75.50
2023-05-08T02:09:53.504Z,75.50
2023-05-08T02:12:25.064Z,75.20
2023-05-08T02:14:58.554Z,75.20
2023-05-08T02:17:31.220Z,75.30
2023-05-08T02:20:03.809Z,75.60
2023-05-08T02:22:37.321Z,75.80
2023-05-08T02:25:09.285Z,76.10
2023-05-08T02:27:41.858Z,76.20
2023-05-08T02:30:15.473Z,76.60
2023-05-08T02:32:49.053Z,77.00
2023-05-08T02:35:22.288Z,77.20
2023-05-08T02:37:58.450Z,77.20
2023-05-08T02:40:31.216Z,77.50
2023-05-08T02:43:02.452Z,77.60
2023-05-08T02:45:41.400Z,77.40
2023-05-08T02:48:18.356Z,77.60
2023-05-08T02:51:12.448Z,77.40
2023-05-08T02:53:46.226Z,77.20
2023-05-08T02:56:25.107Z,76.60
2023-05-08T02:59:04.789Z,76.70
2023-05-08T03:01:38.075Z,76.80
2023-05-08T03:04:11.544Z,76.20
2023-05-08T03:06:50.257Z,75.90
2023-05-08T03:09:27.203Z,76.60
2023-05-08T03:12:00.616Z,75.90
2023-05-08T03:14:32.450Z,75.90
2023-05-08T03:17:05.060Z,76.00
2023-05-08T03:19:38.451Z,76.40
2023-05-08T03:22:11.177Z,76.70
2023-05-08T03:24:44.690Z,76.60
2023-05-08T03:27:17.004Z,76.40
2023-05-08T03:29:49.685Z,76.30
2023-05-08T03:32:21.112Z,76.50
2023-05-08T03:34:53.515Z,76.90
2023-05-08T03:37:24.630Z,77.20
2023-05-08T03:39:55.577Z,77.60
2023-05-08T03:42:28.167Z,77.80
2023-05-08T03:45:01.069Z,78.10
2023-05-08T03:47:32.446Z,78.00
2023-05-08T03:50:03.648Z,78.80
2023-05-08T03:52:35.772Z,79.80
2023-05-08T03:55:07.168Z,78.80
2023-05-08T03:58:07.607Z,78.30
2023-05-08T04:00:43.632Z,78.20
2023-05-08T04:03:30.342Z,78.10
2023-05-08T04:06:04.020Z,78.10
2023-05-08T04:08:37.286Z,77.80
2023-05-08T04:11:10.531Z,78.10
2023-05-08T04:13:44.629Z,76.80
2023-05-08T04:16:29.902Z,76.60
2023-05-08T04:19:06.389Z,77.20
2023-05-08T04:21:36.761Z,76.50
2023-05-08T04:24:10.373Z,76.80
2023-05-08T04:26:42.211Z,76.10
2023-05-08T04:29:13.402Z,75.80
2023-05-08T04:31:44.692Z,75.80
2023-05-08T04:34:16.283Z,75.00
2023-05-08T04:36:49.160Z,73.90
2023-05-08T04:39:19.523Z,73.70
2023-05-08T04:41:51.730Z,73.70
2023-05-08T04:44:23.033Z,74.30
2023-05-08T04:46:56.813Z,75.60
2023-05-08T04:49:28.132Z,75.70
2023-05-08T04:51:59.706Z,75.90
2023-05-08T04:54:30.579Z,76.70
2023-05-08T04:57:01.637Z,77.20
2023-05-08T04:59:32.500Z,77.10
2023-05-08T05:02:08.967Z,76.50
2023-05-08T05:04:40.784Z,75.80
2023-05-08T05:10:19.220Z,76.50
2023-05-08T05:13:10.673Z,76.20
2023-05-08T05:15:36.315Z,75.40
2023-05-08T05:18:14.320Z,75.50
2023-05-08T05:20:42.286Z,75.30
2023-05-08T05:23:22.466Z,75.20
2023-05-08T05:25:58.906Z,75.40
2023-05-08T05:28:28.842Z,74.70
2023-05-08T05:31:03.111Z,75.70
2023-05-08T05:33:36.233Z,74.40
2023-05-08T05:36:08.356Z,74.40
2023-05-08T05:38:46.690Z,74.30
2023-05-08T05:41:22.948Z,73.90
2023-05-08T05:43:57.960Z,73.20
2023-05-08T05:46:36.386Z,72.70
2023-05-08T05:49:05.561Z,72.50
2023-05-08T05:52:12.950Z,72.30
2023-05-08T05:54:15.724Z,72.50
2023-05-08T05:56:46.671Z,73.10
2023-05-08T05:59:19.117Z,73.30
2023-05-08T06:01:56.309Z,73.50
2023-05-08T06:04:34.796Z,73.90
2023-05-08T06:07:02.957Z,72.80
2023-05-08T06:09:34.885Z,72.80
2023-05-08T06:12:06.469Z,72.30
2023-05-08T06:14:37.690Z,71.80
2023-05-08T06:17:08.828Z,71.20
2023-05-08T06:19:39.782Z,71.00
2023-05-08T06:22:18.161Z,71.30
2023-05-08T06:24:54.827Z,70.80
2023-05-08T06:27:25.695Z,71.30
2023-05-08T06:30:08.921Z,71.60
2023-05-08T06:32:40.062Z,71.60
2023-05-08T06:35:13.739Z,71.90
2023-05-08T06:37:45.043Z,72.00
2023-05-08T06:40:16.974Z,71.90
2023-05-08T06:42:48.594Z,71.90
2023-05-08T06:45:22.645Z,71.90
2023-05-08T06:47:53.747Z,71.70
2023-05-08T06:50:25.152Z,71.20
2023-05-08T06:53:03.396Z,71.00
2023-05-08T06:55:28.528Z,70.60
2023-05-08T06:57:59.762Z,70.80
2023-05-08T07:00:31.151Z,71.30
2023-05-08T07:03:02.279Z,70.60
2023-05-08T07:05:33.645Z,70.30
2023-05-08T07:08:08.893Z,69.70
2023-05-08T07:17:08.528Z,68.50
2023-05-08T07:19:38.895Z,68.10
2023-05-08T07:22:10.127Z,68.40
2023-05-08T07:24:40.962Z,68.20
2023-05-08T07:27:11.725Z,67.90
2023-05-08T07:29:43.635Z,67.40
2023-05-08T07:32:14.633Z,67.60
2023-05-08T07:34:45.471Z,67.70
2023-05-08T07:37:16.915Z,68.20
2023-05-08T07:39:48.734Z,68.10
2023-05-08T07:42:19.990Z,68.60
2023-05-08T07:44:54.943Z,68.30
2023-05-08T07:47:25.929Z,68.30
2023-05-08T07:49:57.032Z,67.40
2023-05-08T07:52:28.369Z,67.60
2023-05-08T07:54:59.996Z,67.70
2023-05-08T07:57:32.462Z,67.00
2023-05-08T08:00:04.692Z,67.10
2023-05-08T08:02:35.575Z,67.00
2023-05-08T08:05:07.291Z,66.70
2023-05-08T08:07:38.083Z,67.00
2023-05-08T08:10:11.131Z,67.40
2023-05-08T08:12:43.749Z,67.40
2023-05-08T08:15:14.875Z,67.10
2023-05-08T08:17:47.006Z,68.30
2023-05-08T08:20:18.330Z,66.90
2023-05-08T08:22:49.489Z,67.00
2023-05-08T08:25:20.202Z,67.30
2023-05-08T08:27:50.917Z,67.60
2023-05-08T08:30:21.848Z,67.80
2023-05-08T08:32:52.586Z,67.90
2023-05-08T08:35:25.591Z,67.50
2023-05-08T08:37:56.321Z,67.70
2023-05-08T08:40:27.733Z,67.70
2023-05-08T08:42:58.744Z,67.90
2023-05-08T08:45:29.800Z,67.70
2023-05-08T08:48:03.126Z,67.70
2023-05-08T08:50:35.412Z,67.40
2023-05-08T08:53:18.343Z,67.20
2023-05-08T08:55:51.421Z,67.40
2023-05-08T08:58:27.767Z,66.90
2023-05-08T09:00:59.536Z,66.60
2023-05-08T09:03:31.093Z,66.40
2023-05-08T09:06:05.427Z,66.70
2023-05-08T09:08:36.832Z,66.70
2023-05-08T09:11:07.668Z,67.20
2023-05-08T09:13:38.517Z,67.70
2023-05-08T09:16:09.881Z,67.10
2023-05-08T09:18:40.721Z,66.90
2023-05-08T09:21:11.648Z,66.70
2023-05-08T09:24:00.932Z,66.60
2023-05-08T09:26:37.110Z,66.90
2023-05-08T09:29:23.733Z,66.90
2023-05-08T09:31:55.805Z,66.60
2023-05-08T09:34:29.684Z,66.40
2023-05-08T09:37:24.575Z,66.40
2023-05-08T09:39:57.627Z,65.50
2023-05-08T09:42:35.663Z,65.90
2023-05-08T09:45:07.098Z,66.00
2023-05-08T09:47:41.609Z,66.40
2023-05-08T09:50:34.277Z,66.20
2023-05-08T09:53:05.667Z,66.00
2023-05-08T09:55:49.607Z,66.20
2023-05-08T09:58:34.573Z,66.00
2023-05-08T10:01:40.168Z,65.90
2023-05-08T10:04:10.293Z,66.30
2023-05-08T10:06:41.163Z,66.60
2023-05-08T10:09:18.771Z,66.50
2023-05-08T10:11:54.450Z,66.50
2023-05-08T10:14:28.399Z,66.90
2023-05-08T10:17:00.281Z,66.90
2023-05-08T10:19:31.559Z,67.40
2023-05-08T10:22:09.324Z,66.70
2023-05-08T10:25:08.062Z,67.70
2023-05-08T10:27:39.680Z,66.80
2023-05-08T10:30:28.630Z,66.40
2023-05-08T10:33:00.589Z,66.20
2023-05-08T10:35:33.102Z,66.30
2023-05-08T10:38:05.258Z,66.80
2023-05-08T10:40:36.623Z,67.30
2023-05-08T10:43:10.887Z,66.90
2023-05-08T10:45:55.921Z,66.80
2023-05-08T10:48:47.467Z,67.00
2023-05-08T10:51:33.219Z,67.00
2023-05-08T10:54:23.783Z,67.20
2023-05-08T10:56:54.488Z,67.40
2023-05-08T10:59:25.736Z,67.00
2023-05-08T11:01:59.231Z,66.90
2023-05-08T11:04:32.798Z,67.10
2023-05-08T11:07:05.551Z,67.00
2023-05-08T11:09:48.035Z,67.40
2023-05-08T11:12:27.217Z,67.60
2023-05-08T11:18:25.047Z,67.80
2023-05-08T11:21:00.868Z,67.70
2023-05-08T11:23:35.270Z,68.00
2023-05-08T11:26:10.763Z,67.70
2023-05-08T11:28:58.972Z,67.70
2023-05-08T11:31:48.614Z,67.70
2023-05-08T11:35:00.964Z,67.40
2023-05-08T11:37:32.157Z,67.60
2023-05-08T11:43:26.723Z,67.80
2023-05-08T11:45:57.925Z,68.40
2023-05-08T11:54:37.508Z,68.70
2023-05-08T11:57:08.417Z,68.60
2023-05-08T12:00:15.202Z,68.80
2023-05-08T12:02:44.442Z,68.80
2023-05-08T12:05:35.169Z,68.90
2023-05-08T12:08:07.418Z,69.20
2023-05-08T12:11:33.529Z,69.30
2023-05-08T12:14:06.347Z,69.50
2023-05-08T12:16:45.473Z,69.70
2023-05-08T12:28:40.334Z,70.80
2023-05-08T12:31:16.289Z,71.10
2023-05-08T12:36:38.975Z,71.60
2023-05-08T12:39:29.085Z,71.80
2023-05-08T12:42:38.437Z,71.90
2023-05-08T12:46:03.186Z,72.00
2023-05-08T12:51:55.999Z,71.60
2023-05-08T12:54:35.909Z,71.70
2023-05-08T12:57:24.257Z,71.50
2023-05-08T13:00:04.734Z,71.60
2023-05-08T13:02:59.040Z,71.20
2023-05-08T13:06:15.859Z,70.80
2023-05-08T13:22:03.774Z,70.20
2023-05-08T13:24:40.104Z,70.50
2023-05-08T13:30:33.798Z,70.80
2023-05-08T13:33:22.956Z,71.00
2023-05-08T13:36:17.298Z,71.40
2023-05-08T13:39:02.558Z,71.60
2023-05-08T13:41:36.926Z,71.70
2023-05-08T13:44:07.248Z,70.60
2023-05-08T13:46:42.540Z,69.60
2023-05-08T13:52:09.633Z,69.40
2023-05-08T13:56:02.258Z,69.30
2023-05-08T13:58:04.659Z,70.00
2023-05-08T14:00:44.746Z,70.10
2023-05-08T14:03:21.417Z,70.60
2023-05-08T14:11:49.611Z,74.70
2023-05-08T14:21:18.387Z,75.20
2023-05-08T14:23:58.185Z,75.30
2023-05-08T14:26:09.823Z,76.10
2023-05-08T14:28:44.171Z,76.30
2023-05-08T14:31:23.228Z,76.40
2023-05-08T14:36:53.805Z,76.50
2023-05-08T14:45:36.962Z,77.00
2023-05-08T14:48:49.802Z,77.20
2023-05-08T14:52:06.743Z,77.10
2023-05-08T15:01:41.270Z,77.90
2023-05-08T15:04:18.684Z,78.20
2023-05-08T15:06:53.652Z,78.40
2023-05-08T15:09:24.811Z,78.90
2023-05-08T15:12:01.128Z,79.00
2023-05-08T15:18:20.681Z,79.40
2023-05-08T15:21:19.546Z,80.00
2023-05-08T15:24:13.320Z,80.20
2023-05-08T15:26:26.760Z,80.20
2023-05-08T15:29:04.921Z,80.20
2023-05-08T15:31:35.854Z,80.70
2023-05-08T15:34:10.737Z,80.60
2023-05-08T15:36:42.696Z,80.80
2023-05-08T15:39:13.539Z,81.10
2023-05-08T15:41:45.513Z,81.40
2023-05-08T15:44:16.546Z,81.30
2023-05-08T15:46:50.225Z,81.20
2023-05-08T15:52:16.252Z,81.20
2023-05-08T15:54:47.591Z,81.50
2023-05-08T15:57:18.940Z,81.20
2023-05-08T16:00:01.164Z,81.60
2023-05-08T16:08:32.123Z,81.90
2023-05-08T16:11:04.546Z,82.10
2023-05-08T16:13:38.773Z,81.90
2023-05-08T16:16:10.343Z,82.20
2023-05-08T16:18:43.555Z,82.30
2023-05-08T16:21:17.724Z,82.10
2023-05-08T16:23:51.773Z,82.40
2023-05-08T16:26:23.600Z,82.50
2023-05-08T16:28:57.534Z,82.40
2023-05-08T16:31:32.259Z,82.80
2023-05-08T16:34:03.023Z,82.40
2023-05-08T16:39:26.320Z,82.50
2023-05-08T16:42:00.624Z,82.70
2023-05-08T16:44:31.580Z,82.80
2023-05-08T16:47:23.824Z,82.70
2023-05-08T16:52:53.383Z,82.70
2023-05-08T16:55:27.138Z,82.50
2023-05-08T16:58:05.611Z,82.80
2023-05-08T17:00:38.081Z,83.00
2023-05-08T17:03:08.561Z,82.80
2023-05-08T17:05:46.893Z,83.00
2023-05-08T17:08:17.433Z,83.00
2023-05-08T17:10:55.504Z,83.10
2023-05-08T17:13:26.340Z,83.10
2023-05-08T17:15:57.510Z,83.20
2023-05-08T17:18:28.428Z,83.20
2023-05-08T17:21:09.821Z,83.30
2023-05-08T17:23:45.815Z,83.50
2023-05-08T17:29:29.200Z,83.70
2023-05-08T17:52:45.755Z,84.50
2023-05-08T17:58:22.119Z,84.50
2023-05-08T18:00:53.215Z,84.60
2023-05-08T18:03:24.469Z,84.50
2023-05-08T18:05:59.457Z,84.70
2023-05-08T18:08:30.351Z,84.80
2023-05-08T18:11:05.615Z,84.80
2023-05-08T18:13:48.753Z,84.80
2023-05-08T18:16:19.713Z,85.10
2023-05-08T18:19:00.841Z,85.00
2023-05-08T18:21:34.279Z,85.10
2023-05-08T18:24:05.188Z,85.30
2023-05-08T18:26:35.951Z,85.50
2023-05-08T18:29:19.380Z,85.70
2023-05-08T18:31:50.559Z,85.80
2023-05-08T18:34:23.420Z,85.60
2023-05-08T18:36:56.156Z,85.70
2023-05-08T18:39:30.262Z,86.00
2023-05-08T18:42:03.188Z,85.80
2023-05-08T18:44:35.648Z,86.00
2023-05-08T18:47:06.427Z,85.90
2023-05-08T18:49:38.595Z,85.80
2023-05-08T18:52:09.442Z,85.80
2023-05-08T18:54:42.479Z,86.00
2023-05-08T18:57:13.204Z,86.10
2023-05-08T18:59:43.979Z,86.10
2023-05-08T19:02:14.814Z,86.50
2023-05-08T19:04:45.828Z,86.50
2023-05-08T19:07:16.751Z,86.60
2023-05-08T19:09:49.485Z,86.80
2023-05-08T19:12:28.282Z,87.20
2023-05-08T19:15:00.805Z,87.20
2023-05-08T19:17:31.060Z,87.20
2023-05-08T19:20:05.353Z,87.30
2023-05-08T19:22:40.069Z,86.70
2023-05-08T19:25:14.445Z,86.70
2023-05-08T19:27:47.383Z,86.40
2023-05-08T19:33:09.842Z,86.10
2023-05-08T19:35:41.187Z,86.00
2023-05-08T19:41:02.483Z,86.00
2023-05-08T19:43:34.490Z,85.80
2023-05-08T19:46:05.479Z,85.70
2023-05-08T19:48:36.386Z,86.00
2023-05-08T19:51:10.705Z,86.00
2023-05-08T19:53:41.728Z,86.00
2023-05-08T19:56:12.474Z,85.90
2023-05-08T19:58:43.246Z,86.00
2023-05-08T20:01:14.166Z,86.10
2023-05-08T20:03:58.963Z,86.40
2023-05-08T20:06:32.353Z,86.60
2023-05-08T20:09:03.127Z,87.00
2023-05-08T20:11:33.898Z,87.00
2023-05-08T20:14:04.639Z,87.10
2023-05-08T20:16:35.483Z,87.30
2023-05-08T20:19:06.427Z,87.70
2023-05-08T20:21:37.473Z,87.80
2023-05-08T20:24:09.113Z,87.70
2023-05-08T20:26:40.734Z,87.40
2023-05-08T20:29:11.975Z,87.50
2023-05-08T20:31:45.991Z,88.10
2023-05-08T20:34:21.911Z,87.60
2023-05-08T20:39:47.105Z,87.80
2023-05-08T20:42:18.015Z,88.10
2023-05-08T20:44:48.765Z,88.30
2023-05-08T20:47:19.528Z,88.20
2023-05-08T20:49:50.260Z,88.20
2023-05-08T20:52:21.080Z,88.30
2023-05-08T20:54:51.840Z,88.40
2023-05-08T20:57:22.566Z,88.60
2023-05-08T21:00:03.623Z,88.60
2023-05-08T21:02:54.855Z,88.90
2023-05-08T21:05:32.324Z,89.00
2023-05-08T21:11:00.189Z,89.70
2023-05-08T21:13:31.086Z,89.90
2023-05-08T21:16:01.931Z,90.20
2023-05-08T21:18:32.901Z,90.10
2023-05-08T21:21:03.809Z,90.20
2023-05-08T21:23:34.583Z,90.20
2023-05-08T21:26:05.347Z,90.20
2023-05-08T21:28:36.359Z,90.30
2023-05-08T21:31:07.331Z,90.20
2023-05-08T21:33:38.252Z,90.20
2023-05-08T21:36:09.481Z,90.30
2023-05-08T21:38:40.311Z,90.30
2023-05-08T21:41:11.670Z,90.30
2023-05-08T21:43:42.614Z,90.20
2023-05-08T21:46:13.520Z,90.20
2023-05-08T21:48:44.363Z,90.40
2023-05-08T21:51:15.906Z,90.50
2023-05-08T21:53:46.617Z,90.70
2023-05-08T21:56:17.851Z,90.80
2023-05-08T21:58:48.600Z,90.70
2023-05-08T22:01:19.789Z,90.60
2023-05-08T22:03:52.231Z,90.60
2023-05-08T22:06:23.085Z,90.60
2023-05-08T22:09:04.488Z,90.60
2023-05-08T22:11:35.368Z,90.80
2023-05-08T22:14:06.100Z,90.70
2023-05-08T22:19:25.818Z,91.20
2023-05-08T22:21:56.542Z,90.80
2023-05-08T22:24:28.034Z,91.10
2023-05-08T22:26:58.886Z,91.10
2023-05-08T22:29:29.624Z,91.10
2023-05-08T22:32:00.515Z,91.10
2023-05-08T22:34:31.492Z,91.00
2023-05-08T22:37:02.334Z,91.00
2023-05-08T22:39:33.180Z,91.10
2023-05-08T22:42:05.350Z,91.10
2023-05-08T22:44:36.320Z,91.20
2023-05-08T22:47:12.961Z,91.20
2023-05-08T22:49:43.582Z,91.10
2023-05-08T22:52:19.757Z,91.10
2023-05-08T22:57:51.770Z,91.30
2023-05-08T23:00:23.261Z,91.40
2023-05-08T23:02:54.396Z,91.60
2023-05-08T23:05:25.623Z,91.60
2023-05-08T23:07:56.444Z,91.60
2023-05-08T23:10:27.195Z,91.60
2023-05-08T23:12:57.992Z,91.50
2023-05-08T23:15:28.917Z,91.40
2023-05-08T23:17:59.868Z,91.40
2023-05-08T23:23:22.011Z,91.30
2023-05-08T23:28:57.539Z,91.20
2023-05-08T23:37:06.952Z,91.10
2023-05-08T23:39:49.054Z,91.10
2023-05-08T23:45:22.496Z,91.10
2023-05-08T23:47:53.032Z,91.20
2023-05-08T23:56:15.309Z,91.30
